Colora, MD (21917)

4:56 AM EDT on September 02, 2015 (GMT -0400)
Colora Weather | | Change Station
CLOSE
Current Station
Personal Weather Station
Location: Colora, MD
Elevation: 348 ft
Nearby Weather Stations

Elev 348 ft 39.67 °N, 76.09 °W | Updated 15 seconds ago

Clear
Clear
65.8 °F
Feels Like 65.8 °F
N
0.0
Wind Variable Wind from East
Gusts 0.0 mph

Today
High -- | Low -- °F
--% Chance of Precip.
Yesterday
High -- | Low -- °F
Precip. -- in
6:33 AM 7:34 PM
Waning Gibbous, 82% visible
Pressure 30.03 in
Visibility 3.0 miles
Clouds Clear
Dew Point 65 °F
Humidity 96%
Rainfall 0.00 in
Snow Depth Not available.
UV 0 out of 12
Pollen 10.10 out of 12
Air Quality Not available.
Flu Activity Not available.
METAR KILG 020851Z 33003KT 3SM BR CLR 21/20 A3003 RMK AO2 SLP167 T02060200 56007 $
Pressure 30.03 in
Visibility 3.0 miles
Clouds Clear
Dew Point 65 °F
Humidity 96%
Rainfall 0.00 in
Snow Depth Not available.
UV 0 out of 12
Pollen 10.10 out of 12
Air Quality Not available.
Flu Activity Not available.
METAR KILG 020851Z 33003KT 3SM BR CLR 21/20 A3003 RMK AO2 SLP167 T02060200 56007 $
Nowcast | as of 2:19 am EDT on September 2, 2015

Patchy fog will persist through dawn across portions of the region, reducing visibilities to one half mile at times. Motorists are urged to exercise caution for rapidly changing visibilities. Reduce speed, allow extra time to reach your destination, and use low beam headlights if you encounter fog. The fog should begin to dissipate shortly after sunrise.

×

10-Day Weather Forecast

×

Almanac

Astronomy

Sep. 02, 2015 Rise Set
Actual Time
Civil Twilight
Nautical Twilight
Astronomical Twilight
Moon
Length of Visible Light
Length of Day
Tomorrow will be .
, % of the Moon is Illuminated

Today's Extremes

State Highs State Lows

Community

WunderPhotos

Upload Photos

1,851,728 photos uploaded!

WunderBlogs® & News

Nearby

Air Quality

  Air Quality AQ Index Pollutant
Not available.

Snow Depth

Station Depth Elevation

Earthquake Activity

City Distance Mag. Time & Date
Minimum magnitude displayed is 2.5.

Coastal Water Temperatures

Place Temperature

Stations

Nearby Weather Stations

Station Location Temp. Windchill Dew Point Humidity Wind Precip. Elev Updated Type